createdAt,value
2018-09-26T00:01:08.502Z,7.50
2018-09-26T00:03:38.935Z,7.50
2018-09-26T00:06:06.961Z,7.40
2018-09-26T00:08:34.926Z,7.40
2018-09-26T00:11:02.885Z,7.40
2018-09-26T00:15:58.421Z,7.40
2018-09-26T00:18:26.358Z,7.40
2018-09-26T00:20:54.347Z,7.30
2018-09-26T00:25:49.870Z,7.30
2018-09-26T00:28:17.868Z,7.30
2018-09-26T00:30:46.896Z,7.40
2018-09-26T00:33:14.843Z,7.40
2018-09-26T00:35:42.781Z,7.40
2018-09-26T00:38:10.756Z,7.40
2018-09-26T00:43:06.244Z,7.40
2018-09-26T00:45:34.176Z,7.50
2018-09-26T00:48:02.118Z,7.50
2018-09-26T00:52:57.631Z,7.50
2018-09-26T00:55:25.635Z,7.50
2018-09-26T01:00:21.149Z,7.50
2018-09-26T01:02:49.102Z,7.40
2018-09-26T01:05:17.049Z,7.40
2018-09-26T01:07:45.018Z,7.50
2018-09-26T01:10:12.985Z,7.50
2018-09-26T01:12:40.901Z,7.60
2018-09-26T01:20:04.044Z,7.50
2018-09-26T01:22:32.010Z,7.50
2018-09-26T01:24:59.920Z,7.60
2018-09-26T01:27:32.058Z,7.60
2018-09-26T01:32:27.587Z,7.60
2018-09-26T01:34:55.549Z,7.60
2018-09-26T01:39:51.027Z,7.60
2018-09-26T01:42:18.961Z,7.60
2018-09-26T01:44:46.911Z,7.60
2018-09-26T01:47:14.900Z,7.60
2018-09-26T01:52:10.401Z,7.60
2018-09-26T01:54:38.362Z,7.60
2018-09-26T01:57:06.391Z,7.60
2018-09-26T01:59:34.339Z,7.60
2018-09-26T02:02:02.327Z,7.60
2018-09-26T02:04:30.288Z,7.60
2018-09-26T02:06:58.198Z,7.60
2018-09-26T02:09:26.148Z,7.60
2018-09-26T02:14:21.698Z,7.50
2018-09-26T02:16:49.646Z,7.40
2018-09-26T02:19:17.623Z,7.40
2018-09-26T02:21:45.559Z,7.40
2018-09-26T02:24:13.515Z,7.40
2018-09-26T02:26:41.507Z,7.30
2018-09-26T02:29:09.485Z,7.30
2018-09-26T02:31:37.763Z,7.20
2018-09-26T02:34:05.741Z,7.20
2018-09-26T02:36:33.648Z,7.20
2018-09-26T02:39:01.606Z,7.20
2018-09-26T02:41:29.517Z,7.10
2018-09-26T02:43:57.473Z,7.20
2018-09-26T02:51:26.074Z,7.10
2018-09-26T02:53:54.027Z,7.00
2018-09-26T02:56:21.989Z,7.00
2018-09-26T02:58:49.925Z,6.90
2018-09-26T03:01:17.874Z,6.90
2018-09-26T03:03:45.817Z,6.90
2018-09-26T03:06:14.630Z,6.90
2018-09-26T03:11:10.141Z,6.90
2018-09-26T03:13:38.122Z,6.80
2018-09-26T03:16:06.114Z,6.80
2018-09-26T03:18:34.050Z,6.80
2018-09-26T03:21:02.058Z,6.80
2018-09-26T03:23:30.002Z,6.80
2018-09-26T03:25:57.960Z,6.80
2018-09-26T03:28:25.957Z,6.80
2018-09-26T03:30:53.922Z,6.80
2018-09-26T03:33:21.848Z,6.80
2018-09-26T03:35:49.801Z,6.70
2018-09-26T03:38:17.749Z,6.80
2018-09-26T03:40:45.705Z,6.80
2018-09-26T03:43:13.631Z,6.80
2018-09-26T03:45:41.566Z,6.80
2018-09-26T03:48:09.507Z,6.80
2018-09-26T03:50:37.513Z,6.80
2018-09-26T03:53:05.735Z,6.80
2018-09-26T04:00:28.762Z,6.90
2018-09-26T04:02:56.698Z,6.80
2018-09-26T04:05:24.673Z,6.80
2018-09-26T04:07:52.731Z,6.90
2018-09-26T04:12:48.282Z,6.90
2018-09-26T04:15:16.173Z,6.90
2018-09-26T04:17:44.123Z,6.90
2018-09-26T04:20:12.011Z,6.90
2018-09-26T04:22:39.995Z,6.90
2018-09-26T04:25:07.967Z,7.00
2018-09-26T04:27:36.016Z,6.90
2018-09-26T04:30:03.981Z,6.90
2018-09-26T04:34:59.578Z,6.90
2018-09-26T04:37:27.560Z,6.90
2018-09-26T04:39:55.498Z,6.90
2018-09-26T04:42:23.437Z,6.90
2018-09-26T04:44:51.402Z,6.90
2018-09-26T04:47:19.354Z,7.10
2018-09-26T04:54:42.414Z,7.40
2018-09-26T04:57:10.367Z,7.50
2018-09-26T05:02:05.896Z,7.60
2018-09-26T05:04:33.796Z,7.60
2018-09-26T05:07:01.758Z,7.70
2018-09-26T05:09:29.685Z,7.70
2018-09-26T05:11:57.609Z,7.70
2018-09-26T05:14:25.593Z,7.80
2018-09-26T05:19:21.112Z,7.80
2018-09-26T05:21:49.041Z,7.90
2018-09-26T05:24:16.977Z,7.90
2018-09-26T05:26:44.925Z,7.90
2018-09-26T05:29:12.859Z,8.00
2018-09-26T05:31:40.867Z,8.00
2018-09-26T05:36:36.401Z,8.10
2018-09-26T05:41:32.821Z,8.20
2018-09-26T05:44:00.814Z,8.20
2018-09-26T05:46:28.720Z,8.20
2018-09-26T05:48:56.638Z,8.30
2018-09-26T05:51:24.609Z,8.30
2018-09-26T05:53:52.577Z,8.30
2018-09-26T05:56:20.512Z,8.30
2018-09-26T05:58:48.454Z,8.40
2018-09-26T06:03:43.946Z,8.40
2018-09-26T06:06:11.873Z,8.50
2018-09-26T06:08:39.852Z,8.60
2018-09-26T06:11:07.778Z,8.70
2018-09-26T06:16:03.315Z,8.90
2018-09-26T06:18:31.226Z,8.90
2018-09-26T06:20:59.155Z,9.00
2018-09-26T06:23:27.115Z,9.10
2018-09-26T06:25:55.110Z,9.10
2018-09-26T06:28:23.063Z,9.10
2018-09-26T06:30:51.007Z,9.20
2018-09-26T06:33:19.005Z,9.30
2018-09-26T06:38:14.464Z,9.50
2018-09-26T06:40:42.403Z,9.50
2018-09-26T06:43:10.674Z,9.50
2018-09-26T06:50:33.747Z,9.60
2018-09-26T06:53:01.659Z,9.60
2018-09-26T06:55:29.644Z,9.60
2018-09-26T06:57:57.561Z,9.70
2018-09-26T07:00:25.607Z,9.70
2018-09-26T07:02:53.617Z,9.80
2018-09-26T07:05:21.551Z,10.00
2018-09-26T07:10:17.150Z,10.20
2018-09-26T07:12:45.061Z,10.30
2018-09-26T07:15:13.014Z,10.30
2018-09-26T07:17:40.959Z,10.40
2018-09-26T07:20:08.931Z,10.50
2018-09-26T07:25:04.441Z,10.70
2018-09-26T07:27:32.411Z,10.80
2018-09-26T07:32:28.238Z,10.80
2018-09-26T07:34:56.161Z,10.90
2018-09-26T07:37:24.125Z,11.00
2018-09-26T07:39:52.058Z,11.00
2018-09-26T07:42:20.008Z,11.10
2018-09-26T07:44:47.910Z,11.20
2018-09-26T07:47:15.831Z,11.30
2018-09-26T07:49:43.785Z,11.40
2018-09-26T07:52:11.714Z,11.50
2018-09-26T07:54:39.687Z,11.50
2018-09-26T07:57:07.598Z,11.50
2018-09-26T08:02:03.131Z,11.60
2018-09-26T08:06:58.613Z,11.70
2018-09-26T08:09:26.576Z,11.90
2018-09-26T08:14:22.537Z,12.00
2018-09-26T08:16:50.490Z,12.00
2018-09-26T08:19:18.422Z,12.00
2018-09-26T08:21:46.358Z,12.20
2018-09-26T08:24:14.402Z,12.20
2018-09-26T08:26:42.417Z,12.30
2018-09-26T08:29:10.347Z,12.30
2018-09-26T08:31:38.322Z,12.40
2018-09-26T08:36:34.108Z,12.60
2018-09-26T08:39:02.031Z,12.50
2018-09-26T08:41:29.992Z,12.50
2018-09-26T08:43:58.282Z,12.40
2018-09-26T08:48:53.779Z,12.60
2018-09-26T08:51:21.749Z,12.70
2018-09-26T08:53:49.783Z,12.70
2018-09-26T08:56:17.741Z,12.80
2018-09-26T08:58:45.780Z,12.90
2018-09-26T09:01:19.257Z,12.90
2018-09-26T09:03:47.202Z,13.10
2018-09-26T09:11:10.269Z,13.40
2018-09-26T09:18:33.469Z,13.40
2018-09-26T09:21:01.433Z,13.50
2018-09-26T09:23:29.763Z,13.50
2018-09-26T09:25:57.726Z,13.60
2018-09-26T09:28:25.655Z,13.60
2018-09-26T09:30:53.678Z,13.60
2018-09-26T09:35:49.158Z,13.90
2018-09-26T09:38:17.108Z,13.90
2018-09-26T09:40:45.030Z,14.00
2018-09-26T09:43:13.300Z,14.30
2018-09-26T09:45:41.235Z,14.50
2018-09-26T09:48:09.132Z,14.60
2018-09-26T09:50:37.100Z,14.70
2018-09-26T10:00:33.102Z,14.80
2018-09-26T10:03:01.150Z,15.10
2018-09-26T10:07:56.606Z,15.30
2018-09-26T10:10:25.224Z,15.40
2018-09-26T10:15:20.752Z,15.50
2018-09-26T10:17:48.716Z,15.50
2018-09-26T10:20:17.150Z,15.50
2018-09-26T10:22:45.073Z,15.60
2018-09-26T10:25:13.119Z,15.60
2018-09-26T10:27:40.999Z,15.50
2018-09-26T10:30:08.988Z,15.50
2018-09-26T10:32:37.331Z,15.60
2018-09-26T10:35:05.416Z,15.60
2018-09-26T10:40:00.847Z,15.40
2018-09-26T10:42:29.272Z,15.30
2018-09-26T10:44:57.186Z,15.50
2018-09-26T10:47:25.187Z,15.60
2018-09-26T10:52:20.682Z,15.30
2018-09-26T10:54:48.647Z,15.40
2018-09-26T10:57:16.572Z,15.40
2018-09-26T10:59:44.527Z,15.60
2018-09-26T11:02:12.546Z,15.80
2018-09-26T11:04:40.499Z,15.90
2018-09-26T11:07:08.471Z,15.90
2018-09-26T11:09:36.378Z,16.00
2018-09-26T11:12:04.319Z,16.00
2018-09-26T11:16:59.808Z,15.70
2018-09-26T11:19:27.762Z,16.00
2018-09-26T11:21:55.771Z,16.30
2018-09-26T11:24:23.702Z,16.50
2018-09-26T11:26:51.974Z,16.60
2018-09-26T11:29:19.870Z,16.90
2018-09-26T11:39:11.304Z,16.80
2018-09-26T11:44:07.594Z,17.30
2018-09-26T11:46:35.796Z,17.30
2018-09-26T11:49:03.737Z,17.40
2018-09-26T11:51:31.724Z,17.40
2018-09-26T11:53:59.664Z,17.40
2018-09-26T11:56:27.658Z,17.20
2018-09-26T11:58:55.598Z,17.30
2018-09-26T12:01:23.533Z,17.40
2018-09-26T12:06:19.417Z,17.40
2018-09-26T12:08:47.509Z,17.30
2018-09-26T12:11:15.663Z,17.50
2018-09-26T12:13:43.646Z,17.60
2018-09-26T12:16:11.555Z,17.60
2018-09-26T12:21:07.032Z,18.00
2018-09-26T12:23:34.951Z,17.90
2018-09-26T12:28:30.452Z,17.80
2018-09-26T12:30:58.393Z,17.70
2018-09-26T12:33:26.344Z,18.00
2018-09-26T12:35:54.289Z,18.40
2018-09-26T12:38:22.217Z,18.60
2018-09-26T12:43:17.808Z,18.70
2018-09-26T12:48:13.352Z,18.60
2018-09-26T12:50:41.257Z,18.40
2018-09-26T12:53:09.508Z,18.60
2018-09-26T12:55:37.441Z,18.60
2018-09-26T12:58:05.496Z,18.50
2018-09-26T13:00:33.607Z,18.50
2018-09-26T13:03:01.522Z,18.80
2018-09-26T13:07:57.285Z,18.30
2018-09-26T13:12:52.826Z,18.80
2018-09-26T13:15:20.727Z,18.50
2018-09-26T13:17:48.695Z,18.40
2018-09-26T13:20:16.713Z,18.50
2018-09-26T13:22:44.646Z,18.70
2018-09-26T13:25:12.627Z,18.60
2018-09-26T13:27:40.641Z,18.80
2018-09-26T13:30:08.656Z,19.10
2018-09-26T13:32:36.550Z,19.10
2018-09-26T13:35:04.669Z,19.30
2018-09-26T13:37:32.604Z,19.30
2018-09-26T13:40:00.516Z,19.30
2018-09-26T13:42:28.557Z,19.30
2018-09-26T13:49:51.756Z,20.10
2018-09-26T13:52:19.773Z,20.10
2018-09-26T13:54:47.661Z,19.90
2018-09-26T13:57:15.660Z,20.00
2018-09-26T13:59:43.658Z,19.60
2018-09-26T14:02:12.116Z,19.50
2018-09-26T14:04:40.001Z,19.00
2018-09-26T14:07:08.215Z,19.00
2018-09-26T14:09:36.184Z,19.20
2018-09-26T14:12:04.776Z,19.50
2018-09-26T14:14:32.836Z,19.80
2018-09-26T14:17:00.798Z,19.50
2018-09-26T14:21:56.733Z,19.80
2018-09-26T14:24:24.647Z,20.30
2018-09-26T14:26:52.614Z,21.00
2018-09-26T14:31:48.195Z,21.60
2018-09-26T14:34:16.165Z,21.10
2018-09-26T14:36:44.189Z,21.40
2018-09-26T14:39:12.152Z,22.00
2018-09-26T14:41:40.014Z,21.60
2018-09-26T14:46:35.508Z,21.50
2018-09-26T14:49:03.466Z,21.80
2018-09-26T14:51:31.428Z,21.90
2018-09-26T14:53:59.412Z,21.70
2018-09-26T14:56:27.459Z,22.30
2018-09-26T14:58:55.308Z,22.60
2018-09-26T15:01:23.258Z,22.40
2018-09-26T15:03:51.196Z,21.90
2018-09-26T15:06:19.183Z,21.50
2018-09-26T15:11:15.116Z,20.20
2018-09-26T15:16:10.668Z,20.20
2018-09-26T15:23:33.930Z,21.20
2018-09-26T15:26:02.324Z,21.60
2018-09-26T15:30:57.835Z,21.60
2018-09-26T15:33:25.773Z,22.40
2018-09-26T15:35:53.706Z,22.60
2018-09-26T15:40:49.302Z,21.10
2018-09-26T15:43:17.653Z,21.20
2018-09-26T15:45:45.885Z,21.50
2018-09-26T15:48:14.311Z,21.80
2018-09-26T15:50:42.830Z,22.10
2018-09-26T15:53:11.255Z,21.60
2018-09-26T15:55:39.668Z,21.60
2018-09-26T16:00:36.072Z,21.20
2018-09-26T16:03:05.366Z,21.00
2018-09-26T16:05:34.000Z,20.70
2018-09-26T16:08:02.208Z,20.40
2018-09-26T16:12:59.113Z,19.20
2018-09-26T16:15:27.641Z,19.00
2018-09-26T16:20:23.228Z,18.40
2018-09-26T16:22:51.686Z,18.10
2018-09-26T16:30:14.755Z,17.80
2018-09-26T16:32:42.653Z,17.70
2018-09-26T16:35:10.777Z,17.60
2018-09-26T16:37:38.872Z,17.50
2018-09-26T16:40:06.864Z,17.40
2018-09-26T16:42:34.942Z,17.40
2018-09-26T16:45:03.027Z,17.30
2018-09-26T16:47:31.036Z,17.20
2018-09-26T16:49:59.036Z,17.20
2018-09-26T16:52:27.667Z,17.20
2018-09-26T16:57:23.213Z,16.90
2018-09-26T16:59:51.159Z,16.80
2018-09-26T17:02:19.225Z,16.70
2018-09-26T17:04:47.228Z,16.70
2018-09-26T17:07:15.246Z,16.70
2018-09-26T17:09:43.266Z,16.70
2018-09-26T17:12:11.294Z,16.60
2018-09-26T17:17:07.058Z,16.50
2018-09-26T17:19:35.909Z,16.40
2018-09-26T17:22:04.093Z,16.30
2018-09-26T17:24:32.170Z,16.20
2018-09-26T17:27:00.311Z,16.20
2018-09-26T17:36:51.510Z,16.20
2018-09-26T17:39:19.415Z,16.20
2018-09-26T17:41:47.376Z,16.20
2018-09-26T17:46:42.894Z,16.20
2018-09-26T17:49:10.954Z,16.20
2018-09-26T17:51:38.901Z,16.20
2018-09-26T17:56:34.450Z,16.20
2018-09-26T18:01:30.052Z,16.20
2018-09-26T18:08:53.099Z,16.20
2018-09-26T18:11:21.067Z,16.20
2018-09-26T18:13:49.006Z,16.20
2018-09-26T18:18:44.483Z,16.20
2018-09-26T18:21:12.416Z,16.10
2018-09-26T18:26:07.908Z,16.20
2018-09-26T18:28:35.870Z,16.10
2018-09-26T18:31:03.896Z,16.10
2018-09-26T18:35:59.457Z,16.20
2018-09-26T18:38:27.441Z,16.20
2018-09-26T18:40:55.435Z,16.20
2018-09-26T18:43:23.505Z,16.20
2018-09-26T18:45:51.709Z,16.10
2018-09-26T18:48:19.637Z,16.10
2018-09-26T18:50:47.715Z,16.10
2018-09-26T18:53:15.720Z,16.10
2018-09-26T18:55:43.662Z,16.10
2018-09-26T18:58:11.588Z,16.10
2018-09-26T19:00:39.629Z,16.10
2018-09-26T19:03:07.626Z,16.20
2018-09-26T19:05:35.670Z,16.20
2018-09-26T19:10:35.438Z,16.10
2018-09-26T19:15:30.982Z,16.10
2018-09-26T19:20:26.824Z,16.10
2018-09-26T19:22:54.945Z,16.20
2018-09-26T19:25:23.335Z,16.00
2018-09-26T19:30:19.029Z,16.00
2018-09-26T19:32:47.135Z,16.00
2018-09-26T19:35:15.143Z,16.00
2018-09-26T19:37:43.200Z,15.90
2018-09-26T19:40:11.286Z,15.90
2018-09-26T19:42:39.299Z,15.90
2018-09-26T19:45:07.359Z,15.80
2018-09-26T19:47:35.376Z,15.80
2018-09-26T19:50:03.429Z,15.80
2018-09-26T19:52:31.448Z,15.80
2018-09-26T19:54:59.546Z,15.90
2018-09-26T19:57:27.569Z,15.80
2018-09-26T19:59:55.619Z,15.80
2018-09-26T20:02:23.813Z,15.90
2018-09-26T20:07:19.336Z,15.80
2018-09-26T20:09:47.422Z,15.80
2018-09-26T20:12:15.358Z,15.80
2018-09-26T20:14:43.288Z,15.80
2018-09-26T20:17:11.217Z,15.80
2018-09-26T20:19:39.171Z,15.80
2018-09-26T20:22:07.387Z,15.80
2018-09-26T20:24:35.291Z,15.80
2018-09-26T20:29:31.211Z,15.80
2018-09-26T20:34:26.619Z,15.80
2018-09-26T20:36:54.610Z,15.80
2018-09-26T20:44:17.690Z,15.80
2018-09-26T20:49:13.221Z,15.80
2018-09-26T20:51:41.134Z,15.80
2018-09-26T20:54:09.098Z,15.80
2018-09-26T20:56:37.057Z,15.70
2018-09-26T20:59:05.068Z,15.70
2018-09-26T21:01:33.042Z,15.60
2018-09-26T21:06:28.616Z,15.40
2018-09-26T21:11:24.123Z,15.50
2018-09-26T21:13:52.087Z,15.40
2018-09-26T21:18:47.555Z,15.30
2018-09-26T21:21:15.515Z,15.20
2018-09-26T21:23:43.422Z,15.20
2018-09-26T21:26:11.377Z,15.20
2018-09-26T21:31:06.894Z,15.20
2018-09-26T21:33:34.848Z,15.30
2018-09-26T21:38:30.403Z,15.30
2018-09-26T21:40:58.364Z,15.30
2018-09-26T21:43:26.348Z,15.30
2018-09-26T21:45:54.400Z,15.30
2018-09-26T21:48:22.371Z,15.30
2018-09-26T21:50:50.312Z,15.30
2018-09-26T21:53:18.267Z,15.30
2018-09-26T21:55:46.217Z,15.30
2018-09-26T22:03:15.064Z,15.30
2018-09-26T22:05:43.046Z,15.20
2018-09-26T22:08:10.998Z,15.20
2018-09-26T22:10:38.941Z,15.20
2018-09-26T22:15:34.539Z,15.10
2018-09-26T22:18:02.482Z,15.20
2018-09-26T22:20:40.109Z,15.20
2018-09-26T22:23:08.068Z,15.20
2018-09-26T22:25:36.025Z,15.20
2018-09-26T22:28:03.971Z,15.10
2018-09-26T22:30:31.907Z,15.10
2018-09-26T22:32:59.858Z,15.10
2018-09-26T22:35:28.091Z,15.10
2018-09-26T22:45:19.113Z,15.20
2018-09-26T22:47:47.118Z,15.20
2018-09-26T22:50:15.046Z,15.20
2018-09-26T22:52:42.995Z,15.20
2018-09-26T22:55:10.912Z,15.20
2018-09-26T22:57:38.823Z,15.10
2018-09-26T23:02:34.291Z,15.10
2018-09-26T23:05:02.317Z,15.20
2018-09-26T23:07:30.273Z,15.20
2018-09-26T23:12:25.731Z,15.20
2018-09-26T23:14:53.726Z,15.20
2018-09-26T23:17:21.682Z,15.20
2018-09-26T23:24:44.712Z,15.10
2018-09-26T23:27:12.692Z,15.10
2018-09-26T23:34:35.800Z,15.10
2018-09-26T23:37:03.770Z,15.10
2018-09-26T23:39:31.744Z,15.10
2018-09-26T23:44:27.261Z,15.00
2018-09-26T23:46:55.216Z,15.00
2018-09-26T23:49:23.177Z,15.00
2018-09-26T23:51:51.105Z,14.90
2018-09-26T23:54:19.474Z,14.90
2018-09-26T23:56:47.448Z,15.00
2018-09-26T23:59:15.379Z,15.00
